createdAt,value
2022-12-18T00:01:25.643Z,12.57
2022-12-18T00:03:53.447Z,11.85
2022-12-18T00:06:21.091Z,11.45
2022-12-18T00:08:48.674Z,9.52
2022-12-18T00:11:17.675Z,10.90
2022-12-18T00:13:44.561Z,11.23
2022-12-18T00:16:16.940Z,10.60
2022-12-18T00:18:43.919Z,10.32
2022-12-18T00:21:12.800Z,11.02
2022-12-18T00:23:40.899Z,12.00
2022-12-18T00:26:11.747Z,11.13
2022-12-18T00:28:38.283Z,12.07
2022-12-18T00:31:07.704Z,14.60
2022-12-18T00:33:35.270Z,10.07
2022-12-18T00:36:07.659Z,11.48
2022-12-18T00:38:35.025Z,12.10
2022-12-18T00:41:02.020Z,10.43
2022-12-18T00:43:28.882Z,12.10
2022-12-18T00:45:55.644Z,12.73
2022-12-18T00:48:23.051Z,12.38
2022-12-18T00:50:50.208Z,11.68
2022-12-18T00:53:17.060Z,9.65
2022-12-18T00:55:43.926Z,10.90
2022-12-18T00:58:11.496Z,11.40
2022-12-18T01:00:38.998Z,12.00
2022-12-18T01:03:06.215Z,11.93
2022-12-18T01:05:32.924Z,11.35
2022-12-18T01:08:00.329Z,10.75
2022-12-18T01:10:26.923Z,11.88
2022-12-18T01:12:57.853Z,11.37
2022-12-18T01:15:24.349Z,13.07
2022-12-18T01:17:53.583Z,11.43
2022-12-18T01:20:20.572Z,12.88
2022-12-18T01:22:47.383Z,9.82
2022-12-18T01:25:13.877Z,12.32
2022-12-18T01:27:40.532Z,9.30
2022-12-18T01:30:07.758Z,13.00
2022-12-18T01:32:34.592Z,11.05
2022-12-18T01:35:04.940Z,12.05
2022-12-18T01:37:31.465Z,10.32
2022-12-18T01:39:58.019Z,10.80
2022-12-18T01:42:24.585Z,12.35
2022-12-18T01:44:59.998Z,11.27
2022-12-18T01:47:43.738Z,12.93
2022-12-18T01:50:46.324Z,10.35
2022-12-18T01:53:16.754Z,11.20
2022-12-18T01:55:51.241Z,11.90
2022-12-18T01:58:18.646Z,10.75
2022-12-18T02:00:45.541Z,12.30
2022-12-18T02:03:12.864Z,12.05
2022-12-18T02:05:39.456Z,12.20
2022-12-18T02:08:16.204Z,12.52
2022-12-18T02:10:55.227Z,10.98
2022-12-18T02:13:44.823Z,10.35
2022-12-18T02:16:42.166Z,12.60
2022-12-18T02:19:37.055Z,13.23
2022-12-18T02:22:32.330Z,11.77
2022-12-18T02:25:17.000Z,13.43
2022-12-18T02:27:47.456Z,11.50
2022-12-18T02:30:15.495Z,11.80
2022-12-18T02:32:47.255Z,12.57
2022-12-18T02:35:20.137Z,12.38
2022-12-18T02:37:48.832Z,12.00
2022-12-18T02:40:18.072Z,11.93
2022-12-18T02:42:44.986Z,12.60
2022-12-18T02:45:15.227Z,12.60
2022-12-18T02:47:44.515Z,13.30
2022-12-18T02:50:36.955Z,13.55
2022-12-18T02:53:37.538Z,10.70
2022-12-18T02:56:22.565Z,12.68
2022-12-18T02:59:01.626Z,13.60
2022-12-18T03:01:44.125Z,11.20
2022-12-18T03:04:16.105Z,13.30
2022-12-18T03:06:52.703Z,13.00
2022-12-18T03:09:25.412Z,11.02
2022-12-18T03:12:24.606Z,11.95
2022-12-18T03:15:05.025Z,13.38
2022-12-18T03:17:33.757Z,12.95
2022-12-18T03:20:08.434Z,12.30
2022-12-18T03:22:38.518Z,12.07
2022-12-18T03:25:09.839Z,13.35
2022-12-18T03:27:43.163Z,11.60
2022-12-18T03:30:13.797Z,12.13
2022-12-18T03:32:49.887Z,12.88
2022-12-18T03:35:24.155Z,13.52
2022-12-18T03:37:51.052Z,13.82
2022-12-18T03:40:18.216Z,14.30
2022-12-18T03:42:56.141Z,12.68
2022-12-18T03:45:38.305Z,14.65
2022-12-18T03:48:30.025Z,11.60
2022-12-18T03:51:10.031Z,11.88
2022-12-18T03:54:10.870Z,12.60
2022-12-18T03:56:48.418Z,13.98
2022-12-18T03:59:17.545Z,12.45
2022-12-18T04:01:48.613Z,14.43
2022-12-18T04:04:18.700Z,14.43
2022-12-18T04:06:47.898Z,12.82
2022-12-18T04:09:15.633Z,12.57
2022-12-18T04:11:47.508Z,13.98
2022-12-18T04:14:17.877Z,12.57
2022-12-18T04:16:45.301Z,11.00
2022-12-18T04:19:15.258Z,12.32
2022-12-18T04:21:43.978Z,13.27
2022-12-18T04:24:12.448Z,12.73
2022-12-18T04:26:44.957Z,11.45
2022-12-18T04:29:22.657Z,11.93
2022-12-18T04:31:49.552Z,13.40
2022-12-18T04:34:16.865Z,12.20
2022-12-18T04:36:49.452Z,13.73
2022-12-18T04:39:16.618Z,12.45
2022-12-18T04:41:43.701Z,11.07
2022-12-18T04:44:10.246Z,13.40
2022-12-18T04:46:36.809Z,12.20
2022-12-18T04:49:03.373Z,11.45
2022-12-18T04:51:29.895Z,11.25
2022-12-18T04:53:56.426Z,13.15
2022-12-18T04:56:23.503Z,13.45
2022-12-18T04:58:50.353Z,12.27
2022-12-18T05:01:18.714Z,11.18
2022-12-18T05:03:45.766Z,11.15
2022-12-18T05:06:12.706Z,12.45
2022-12-18T05:08:39.468Z,11.32
2022-12-18T05:11:07.458Z,13.07
2022-12-18T05:13:34.265Z,12.85
2022-12-18T05:16:00.901Z,12.70
2022-12-18T05:18:27.967Z,12.57
2022-12-18T05:20:55.429Z,12.13
2022-12-18T05:23:23.418Z,11.65
2022-12-18T05:25:53.542Z,12.95
2022-12-18T05:28:20.923Z,11.93
2022-12-18T05:30:55.895Z,12.00
2022-12-18T05:33:24.674Z,11.07
2022-12-18T05:35:52.844Z,11.18
2022-12-18T05:38:20.787Z,11.32
2022-12-18T05:40:49.046Z,13.13
2022-12-18T05:43:20.989Z,11.32
2022-12-18T05:45:48.962Z,13.48
2022-12-18T05:48:16.548Z,11.48
2022-12-18T05:50:48.081Z,11.52
2022-12-18T05:53:20.379Z,13.05
2022-12-18T05:55:47.475Z,11.65
2022-12-18T05:58:15.386Z,12.07
2022-12-18T06:00:46.832Z,12.57
2022-12-18T06:03:14.287Z,11.35
2022-12-18T06:05:43.432Z,11.18
2022-12-18T06:08:11.473Z,11.65
2022-12-18T06:10:38.520Z,11.43
2022-12-18T06:13:07.095Z,12.80
2022-12-18T06:15:34.221Z,11.13
2022-12-18T06:18:01.738Z,12.50
2022-12-18T06:20:33.215Z,10.52
2022-12-18T06:23:00.395Z,11.32
2022-12-18T06:25:27.102Z,10.90
2022-12-18T06:27:53.643Z,12.35
2022-12-18T06:30:20.514Z,10.80
2022-12-18T06:32:53.078Z,10.65
2022-12-18T06:35:23.137Z,10.23
2022-12-18T06:37:49.633Z,11.85
2022-12-18T06:40:16.257Z,11.55
2022-12-18T06:42:43.022Z,11.30
2022-12-18T06:45:10.000Z,10.57
2022-12-18T06:47:36.591Z,10.85
2022-12-18T06:50:03.732Z,10.85
2022-12-18T06:52:32.920Z,12.80
2022-12-18T06:54:59.426Z,10.10
2022-12-18T06:57:25.968Z,12.35
2022-12-18T06:59:52.474Z,10.93
2022-12-18T07:02:19.185Z,12.57
2022-12-18T07:04:47.775Z,10.98
2022-12-18T07:07:15.254Z,9.90
2022-12-18T07:09:41.782Z,11.07
2022-12-18T07:12:08.940Z,11.57
2022-12-18T07:14:35.460Z,13.60
2022-12-18T07:17:02.576Z,15.48
2022-12-18T07:19:30.426Z,16.25
2022-12-18T07:21:57.597Z,19.40
2022-12-18T07:24:24.236Z,24.58
2022-12-18T07:26:50.802Z,16.55
2022-12-18T07:29:17.323Z,19.75
2022-12-18T07:31:44.102Z,21.80
2022-12-18T07:34:12.649Z,21.60
2022-12-18T07:36:39.501Z,13.57
2022-12-18T07:39:06.085Z,20.55
2022-12-18T07:41:32.692Z,29.10
2022-12-18T07:44:11.160Z,20.55
2022-12-18T07:46:37.779Z,17.42
2022-12-18T07:49:04.360Z,18.80
2022-12-18T07:51:31.612Z,22.70
2022-12-18T07:53:58.299Z,24.20
2022-12-18T07:56:29.524Z,19.77
2022-12-18T07:58:57.354Z,14.70
2022-12-18T08:01:24.209Z,16.48
2022-12-18T08:03:52.162Z,15.02
2022-12-18T08:06:19.517Z,16.70
2022-12-18T08:08:55.891Z,15.82
2022-12-18T08:11:23.566Z,17.35
2022-12-18T08:13:50.183Z,18.77
2022-12-18T08:16:16.776Z,20.42
2022-12-18T08:18:43.708Z,29.48
2022-12-18T08:21:15.807Z,32.75
2022-12-18T08:23:43.745Z,30.95
2022-12-18T08:26:12.089Z,25.73
2022-12-18T08:28:38.892Z,20.88
2022-12-18T08:31:05.854Z,20.90
2022-12-18T08:33:33.482Z,17.20
2022-12-18T08:36:01.168Z,21.63
2022-12-18T08:38:27.769Z,22.95
2022-12-18T08:41:03.576Z,22.83
2022-12-18T08:43:49.121Z,25.90
2022-12-18T08:46:15.662Z,21.88
2022-12-18T08:48:43.051Z,19.15
2022-12-18T08:51:12.698Z,21.25
2022-12-18T08:53:40.178Z,23.58
2022-12-18T08:56:08.907Z,26.88
2022-12-18T08:58:35.470Z,25.83
2022-12-18T09:01:07.160Z,26.02
2022-12-18T09:03:34.146Z,22.75
2022-12-18T09:06:00.926Z,22.10
2022-12-18T09:08:28.404Z,18.17
2022-12-18T09:10:57.549Z,16.33
2022-12-18T09:13:24.299Z,20.38
2022-12-18T09:15:53.294Z,19.70
2022-12-18T09:18:21.692Z,19.38
2022-12-18T09:20:48.517Z,17.25
2022-12-18T09:23:15.552Z,17.00
2022-12-18T09:25:42.185Z,16.92
2022-12-18T09:28:17.034Z,15.85
2022-12-18T09:30:46.783Z,15.75
2022-12-18T09:33:13.700Z,14.98
2022-12-18T09:35:42.277Z,14.70
2022-12-18T09:38:13.146Z,15.82
2022-12-18T09:40:46.037Z,15.20
2022-12-18T09:43:45.254Z,16.27
2022-12-18T09:46:28.160Z,17.52
2022-12-18T09:49:00.481Z,18.02
2022-12-18T09:51:33.516Z,18.58
2022-12-18T09:54:04.579Z,18.25
2022-12-18T09:56:38.562Z,18.75
2022-12-18T09:59:06.284Z,19.98
2022-12-18T10:01:43.256Z,19.17
2022-12-18T10:04:11.288Z,20.40
2022-12-18T10:06:49.585Z,19.20
2022-12-18T10:10:06.996Z,19.98
2022-12-18T10:12:39.586Z,21.25
2022-12-18T10:15:16.916Z,21.65
2022-12-18T10:17:53.091Z,21.63
2022-12-18T10:20:46.316Z,21.55
2022-12-18T10:23:29.271Z,22.50
2022-12-18T10:26:26.745Z,22.75
2022-12-18T10:28:55.340Z,21.88
2022-12-18T10:31:24.728Z,25.30
2022-12-18T10:33:52.433Z,25.92
2022-12-18T10:36:19.185Z,24.23
2022-12-18T10:38:45.767Z,23.15
2022-12-18T10:41:18.347Z,22.48
2022-12-18T10:43:45.247Z,22.55
2022-12-18T10:46:11.793Z,22.35
2022-12-18T10:48:48.467Z,22.60
2022-12-18T10:51:21.196Z,20.90
2022-12-18T10:53:53.909Z,22.25
2022-12-18T10:56:22.141Z,22.95
2022-12-18T10:59:04.935Z,18.40
2022-12-18T11:01:49.527Z,20.00
2022-12-18T11:04:20.112Z,17.77
2022-12-18T11:07:07.804Z,20.85
2022-12-18T11:09:38.014Z,21.58
2022-12-18T11:12:23.501Z,18.13
2022-12-18T11:14:52.875Z,18.15
2022-12-18T11:17:28.496Z,20.85
2022-12-18T11:20:00.549Z,21.23
2022-12-18T11:22:32.376Z,20.30
2022-12-18T11:28:04.282Z,17.55
2022-12-18T11:30:33.489Z,19.38
2022-12-18T11:33:21.874Z,17.73
2022-12-18T11:35:53.771Z,20.30
2022-12-18T11:38:36.814Z,21.00
2022-12-18T11:41:45.679Z,19.50
2022-12-18T11:44:19.334Z,19.17
2022-12-18T11:46:52.577Z,18.35
2022-12-18T11:49:37.047Z,17.25
2022-12-18T11:52:22.214Z,18.35
2022-12-18T11:54:52.757Z,20.35
2022-12-18T11:57:43.285Z,18.73
2022-12-18T12:00:23.496Z,19.10
2022-12-18T12:03:10.744Z,19.67
2022-12-18T12:05:51.039Z,19.67
2022-12-18T12:08:30.682Z,18.80
2022-12-18T12:11:11.244Z,18.42
2022-12-18T12:14:03.646Z,19.33
2022-12-18T12:16:47.864Z,18.10
2022-12-18T12:19:17.197Z,23.27
2022-12-18T12:21:53.554Z,23.38
2022-12-18T12:24:49.163Z,24.30
2022-12-18T12:27:49.281Z,22.30
2022-12-18T12:30:40.623Z,22.00
2022-12-18T12:33:07.224Z,19.13
2022-12-18T12:36:01.446Z,22.23
2022-12-18T12:38:42.329Z,21.83
2022-12-18T12:41:34.440Z,20.25
2022-12-18T12:44:08.869Z,20.27
2022-12-18T12:46:41.362Z,21.38
2022-12-18T12:49:16.497Z,21.30
2022-12-18T12:51:48.702Z,20.55
2022-12-18T12:54:22.947Z,21.10
2022-12-18T12:56:54.741Z,22.27
2022-12-18T13:02:07.596Z,19.98
2022-12-18T13:04:46.602Z,18.98
2022-12-18T13:07:21.554Z,21.23
2022-12-18T13:10:20.855Z,20.17
2022-12-18T13:13:00.737Z,20.85
2022-12-18T13:15:39.735Z,22.15
2022-12-18T13:18:06.646Z,25.05
2022-12-18T13:20:40.965Z,24.80
2022-12-18T13:23:29.397Z,22.77
2022-12-18T13:26:01.391Z,21.40
2022-12-18T13:28:37.737Z,20.65
2022-12-18T13:31:04.744Z,24.05
2022-12-18T13:34:02.073Z,23.40
2022-12-18T13:36:30.315Z,25.00
2022-12-18T13:39:28.884Z,22.10
2022-12-18T13:42:06.081Z,22.45
2022-12-18T13:44:40.828Z,30.98
2022-12-18T13:47:26.647Z,34.67
2022-12-18T13:49:53.896Z,34.78
2022-12-18T13:52:25.734Z,31.13
2022-12-18T13:57:33.638Z,21.58
2022-12-18T14:00:26.210Z,24.58
2022-12-18T14:02:52.971Z,32.70
2022-12-18T14:05:23.658Z,33.50
2022-12-18T14:07:51.536Z,35.00
2022-12-18T14:10:45.585Z,31.58
2022-12-18T14:13:09.899Z,31.45
2022-12-18T14:15:43.671Z,27.67
2022-12-18T14:18:16.479Z,24.15
2022-12-18T14:20:49.220Z,24.27
2022-12-18T14:23:36.959Z,24.25
2022-12-18T14:26:21.221Z,25.13
2022-12-18T14:28:48.263Z,26.15
2022-12-18T14:31:33.049Z,22.85
2022-12-18T14:33:59.653Z,21.90
2022-12-18T14:36:28.631Z,24.15
2022-12-18T14:38:57.531Z,24.10
2022-12-18T14:41:25.465Z,24.10
2022-12-18T14:43:54.854Z,23.52
2022-12-18T14:46:33.582Z,24.40
2022-12-18T14:49:02.973Z,26.08
2022-12-18T14:51:32.505Z,25.15
2022-12-18T14:54:02.430Z,23.15
2022-12-18T14:56:45.321Z,24.48
2022-12-18T14:59:24.665Z,25.65
2022-12-18T15:02:23.595Z,25.67
2022-12-18T15:05:13.453Z,25.40
2022-12-18T15:07:46.384Z,25.63
2022-12-18T15:10:16.595Z,28.42
2022-12-18T15:12:45.554Z,26.65
2022-12-18T15:15:34.138Z,28.08
2022-12-18T15:18:09.786Z,24.67
2022-12-18T15:21:00.772Z,26.65
2022-12-18T15:23:29.033Z,29.50
2022-12-18T15:26:00.684Z,27.05
2022-12-18T15:28:33.241Z,29.23
2022-12-18T15:31:06.445Z,30.55
2022-12-18T15:33:36.646Z,29.65
2022-12-18T15:36:06.082Z,28.00
2022-12-18T15:38:33.152Z,27.27
2022-12-18T15:40:59.791Z,26.35
2022-12-18T15:43:36.231Z,24.95
2022-12-18T15:46:32.348Z,26.60
2022-12-18T15:49:02.077Z,24.85
2022-12-18T15:51:33.043Z,29.25
2022-12-18T15:54:04.590Z,30.20
2022-12-18T15:56:50.497Z,31.10
2022-12-18T15:59:19.692Z,31.23
2022-12-18T16:01:48.989Z,28.80
2022-12-18T16:04:18.761Z,28.00
2022-12-18T16:07:13.372Z,26.13
2022-12-18T16:09:31.906Z,30.02
2022-12-18T16:11:59.525Z,30.20
2022-12-18T16:14:30.090Z,26.70
2022-12-18T16:17:02.801Z,28.73
2022-12-18T16:19:30.694Z,30.08
2022-12-18T16:21:58.952Z,29.92
2022-12-18T16:24:28.965Z,33.42
2022-12-18T16:26:57.621Z,34.10
2022-12-18T16:29:28.067Z,33.15
2022-12-18T16:31:59.965Z,32.45
2022-12-18T16:37:08.207Z,31.15
2022-12-18T16:39:36.024Z,27.83
2022-12-18T16:42:13.391Z,32.78
2022-12-18T16:44:39.937Z,31.98
2022-12-18T16:47:06.740Z,32.03
2022-12-18T16:49:36.080Z,28.20
2022-12-18T16:52:03.830Z,30.90
2022-12-18T16:54:30.504Z,32.42
2022-12-18T16:56:58.008Z,29.85
2022-12-18T16:59:26.697Z,35.95
2022-12-18T17:01:53.522Z,30.02
2022-12-18T17:04:20.191Z,31.77
2022-12-18T17:06:51.767Z,29.27
2022-12-18T17:09:28.401Z,28.50
2022-12-18T17:11:55.262Z,32.80
2022-12-18T17:14:24.384Z,31.90
2022-12-18T17:17:19.162Z,34.03
2022-12-18T17:19:38.766Z,32.65
2022-12-18T17:22:05.462Z,32.28
2022-12-18T17:24:35.244Z,33.00
2022-12-18T17:27:03.156Z,34.38
2022-12-18T17:29:30.157Z,32.50
2022-12-18T17:31:57.288Z,28.77
2022-12-18T17:34:24.349Z,31.70
2022-12-18T17:36:51.015Z,29.17
2022-12-18T17:39:19.922Z,29.15
2022-12-18T17:41:47.726Z,31.88
2022-12-18T17:44:14.586Z,32.22
2022-12-18T17:46:41.209Z,33.45
2022-12-18T17:49:07.960Z,35.72
2022-12-18T17:51:34.510Z,34.55
2022-12-18T17:54:01.229Z,31.35
2022-12-18T17:56:28.578Z,34.03
2022-12-18T17:58:55.429Z,31.25
2022-12-18T18:01:25.000Z,31.88
2022-12-18T18:03:54.146Z,29.52
2022-12-18T18:06:21.296Z,30.92
2022-12-18T18:08:48.394Z,29.38
2022-12-18T18:11:36.962Z,30.98
2022-12-18T18:14:07.082Z,34.45
2022-12-18T18:16:45.362Z,32.28
2022-12-18T18:19:15.983Z,29.98
2022-12-18T18:21:45.758Z,31.95
2022-12-18T18:24:16.324Z,31.40
2022-12-18T18:26:43.192Z,29.02
2022-12-18T18:29:15.125Z,26.45
2022-12-18T18:31:41.891Z,30.38
2022-12-18T18:34:13.734Z,28.10
2022-12-18T18:39:07.131Z,29.83
2022-12-18T18:41:35.647Z,28.80
2022-12-18T18:44:02.789Z,29.73
2022-12-18T18:46:29.291Z,27.70
2022-12-18T18:48:56.146Z,30.67
2022-12-18T18:51:23.004Z,28.83
2022-12-18T18:53:52.180Z,30.92
2022-12-18T18:59:08.324Z,31.20
2022-12-18T19:01:35.108Z,26.85
2022-12-18T19:04:03.138Z,34.00
2022-12-18T19:06:30.074Z,29.52
2022-12-18T19:08:58.865Z,30.00
2022-12-18T19:11:44.619Z,31.63
2022-12-18T19:14:14.231Z,32.00
2022-12-18T19:16:41.555Z,31.05
2022-12-18T19:19:08.503Z,31.55
2022-12-18T19:21:37.297Z,32.70
2022-12-18T19:24:06.655Z,45.20
2022-12-18T19:26:36.508Z,29.00
2022-12-18T19:29:08.632Z,32.10
2022-12-18T19:31:37.389Z,38.97
2022-12-18T19:34:06.907Z,40.38
2022-12-18T19:36:37.120Z,33.97
2022-12-18T19:39:12.140Z,34.63
2022-12-18T19:41:38.935Z,35.58
2022-12-18T19:44:07.677Z,31.13
2022-12-18T19:46:34.927Z,28.83
2022-12-18T19:49:02.235Z,31.67
2022-12-18T19:51:30.948Z,31.55
2022-12-18T19:54:01.461Z,31.08
2022-12-18T19:56:31.363Z,29.77
2022-12-18T19:58:58.631Z,30.58
2022-12-18T20:01:26.641Z,38.65
2022-12-18T20:03:55.282Z,29.75
2022-12-18T20:06:35.207Z,32.13
2022-12-18T20:09:07.101Z,32.58
2022-12-18T20:11:38.825Z,31.55
2022-12-18T20:14:12.655Z,35.72
2022-12-18T20:16:40.407Z,32.65
2022-12-18T20:19:07.871Z,33.75
2022-12-18T20:21:34.410Z,33.50
2022-12-18T20:24:01.971Z,31.85
2022-12-18T20:26:28.563Z,31.13
2022-12-18T20:28:55.546Z,36.50
2022-12-18T20:31:22.309Z,33.60
2022-12-18T20:33:59.581Z,36.42
2022-12-18T20:36:27.114Z,41.58
2022-12-18T20:38:58.180Z,36.47
2022-12-18T20:41:27.360Z,39.08
2022-12-18T20:44:04.646Z,33.30
2022-12-18T20:46:33.945Z,34.55
2022-12-18T20:49:03.487Z,35.35
2022-12-18T20:51:31.619Z,35.10
2022-12-18T20:53:59.619Z,36.13
2022-12-18T20:56:30.533Z,35.58
2022-12-18T20:58:58.724Z,37.00
2022-12-18T21:01:26.779Z,30.15
2022-12-18T21:03:54.379Z,35.60
2022-12-18T21:06:24.888Z,33.80
2022-12-18T21:08:51.576Z,35.22
2022-12-18T21:11:39.353Z,35.05
2022-12-18T21:14:19.152Z,32.65
2022-12-18T21:16:46.362Z,30.95
2022-12-18T21:19:24.342Z,33.35
2022-12-18T21:21:58.766Z,31.23
2022-12-18T21:24:25.656Z,31.90
2022-12-18T21:26:53.912Z,30.90
2022-12-18T21:29:23.497Z,27.60
2022-12-18T21:31:51.850Z,32.20
2022-12-18T21:34:21.286Z,31.10
2022-12-18T21:36:49.553Z,30.05
2022-12-18T21:39:16.998Z,33.03
2022-12-18T21:42:03.917Z,28.83
2022-12-18T21:44:30.884Z,27.70
2022-12-18T21:49:48.664Z,27.13
2022-12-18T21:52:15.176Z,28.65
2022-12-18T21:54:41.713Z,26.67
2022-12-18T21:57:08.659Z,26.20
2022-12-18T21:59:37.470Z,25.70
2022-12-18T22:02:11.500Z,29.40
2022-12-18T22:04:38.066Z,28.80
2022-12-18T22:07:06.162Z,26.40
2022-12-18T22:09:32.906Z,25.55
2022-12-18T22:11:59.533Z,25.25
2022-12-18T22:14:26.092Z,26.13
2022-12-18T22:16:52.726Z,26.52
2022-12-18T22:19:20.213Z,27.08
2022-12-18T22:21:48.611Z,25.15
2022-12-18T22:24:23.742Z,23.60
2022-12-18T22:26:52.892Z,24.58
2022-12-18T22:29:44.882Z,23.27
2022-12-18T22:32:16.259Z,24.15
2022-12-18T22:34:43.593Z,23.08
2022-12-18T22:37:12.007Z,23.63
2022-12-18T22:39:38.832Z,20.08
2022-12-18T22:42:06.246Z,23.58
2022-12-18T22:44:32.747Z,20.95
2022-12-18T22:47:06.379Z,23.73
2022-12-18T22:49:35.152Z,22.98
2022-12-18T22:52:03.947Z,19.73
2022-12-18T22:54:30.709Z,20.10
2022-12-18T22:56:57.570Z,20.98
2022-12-18T22:59:24.641Z,19.45
2022-12-18T23:01:54.542Z,18.75
2022-12-18T23:04:31.191Z,17.52
2022-12-18T23:07:04.540Z,17.63
2022-12-18T23:09:31.230Z,19.95
2022-12-18T23:11:57.716Z,20.95
2022-12-18T23:14:24.238Z,17.70
2022-12-18T23:16:50.792Z,19.05
2022-12-18T23:19:19.957Z,16.58
2022-12-18T23:21:46.522Z,18.98
2022-12-18T23:24:13.454Z,19.73
2022-12-18T23:26:40.014Z,17.92
2022-12-18T23:29:07.304Z,19.42
2022-12-18T23:31:36.409Z,17.85
2022-12-18T23:34:03.873Z,16.73
2022-12-18T23:36:32.299Z,16.20
2022-12-18T23:39:12.346Z,16.40
2022-12-18T23:41:41.908Z,15.60
2022-12-18T23:44:09.988Z,16.40
2022-12-18T23:46:37.547Z,14.90
2022-12-18T23:49:05.841Z,16.25
2022-12-18T23:51:33.157Z,17.08
2022-12-18T23:54:02.239Z,17.42
2022-12-18T23:56:30.075Z,17.02
2022-12-18T23:58:57.349Z,13.70
